Time;durP1;ratioP1;P1;durP2;ratioP2;P2;SDS_P1;SDS_P2;PMS_P1;PMS_P2;Temp;Humidity;BMP_temperature;BMP_pressure;BME280_temperature;BME280_humidity;BME280_pressure;Samples;Min_cycle;Max_cycle;Signal;HPM_P1;HPM_P2
2022/12/16 00:01:51;;;;;;;9.52;6.13;;;;;;;7.49;100.00;92876.88;5089759;28;20483;-72
2022/12/16 00:04:18;;;;;;;9.75;5.82;;;;;;;7.67;100.00;92863.47;5090480;28;20051;-72
2022/12/16 00:06:44;;;;;;;11.13;5.47;;;;;;;7.82;100.00;92849.69;5089923;28;20184;-72
2022/12/16 00:09:11;;;;;;;8.52;5.45;;;;;;;8.02;100.00;92857.28;5090403;28;20105;-73
2022/12/16 00:11:38;;;;;;;12.57;5.78;;;;;;;8.18;100.00;92868.06;5090503;28;20487;-72
2022/12/16 00:14:06;;;;;;;8.20;5.25;;;;;;;8.27;100.00;92859.16;5089791;28;20093;-72
2022/12/16 00:16:32;;;;;;;9.68;5.85;;;;;;;8.40;100.00;92876.22;5090226;28;20079;-72
2022/12/16 00:18:59;;;;;;;11.70;5.03;;;;;;;8.38;100.00;92861.06;5089811;28;20307;-72
2022/12/16 00:21:29;;;;;;;12.55;6.03;;;;;;;8.54;100.00;92876.97;5089891;28;20055;-72
2022/12/16 00:23:56;;;;;;;9.32;6.13;;;;;;;8.60;100.00;92881.25;5089919;28;20052;-72
2022/12/16 00:26:23;;;;;;;8.38;4.95;;;;;;;8.60;100.00;92873.59;5090077;28;20131;-72
2022/12/16 00:28:50;;;;;;;10.43;5.00;;;;;;;8.74;100.00;92881.97;5089790;28;20044;-72
2022/12/16 00:31:19;;;;;;;10.45;5.10;;;;;;;8.72;100.00;92883.97;5089554;28;20076;-72
2022/12/16 00:33:45;;;;;;;10.40;5.13;;;;;;;8.76;100.00;92885.13;5089484;28;20051;-72
2022/12/16 00:36:12;;;;;;;8.07;4.88;;;;;;;8.84;100.00;92885.88;5089519;28;20488;-72
2022/12/16 00:38:39;;;;;;;8.38;5.43;;;;;;;8.86;100.00;92881.31;5102395;28;20104;-73
2022/12/16 00:41:06;;;;;;;9.93;4.65;;;;;;;8.89;100.00;92891.16;5091126;28;20052;-73
2022/12/16 00:43:32;;;;;;;7.95;4.53;;;;;;;8.91;100.00;92878.91;5089646;28;20048;-73
2022/12/16 00:45:59;;;;;;;6.97;4.75;;;;;;;8.92;100.00;92883.84;5089688;28;20067;-72
2022/12/16 00:48:27;;;;;;;7.32;4.88;;;;;;;9.00;100.00;92870.00;5093541;28;20052;-72
2022/12/16 00:50:54;;;;;;;6.70;4.57;;;;;;;9.03;100.00;92873.94;5089557;28;20079;-73
2022/12/16 00:53:22;;;;;;;6.70;4.03;;;;;;;9.04;100.00;92871.16;5089578;28;20457;-72
2022/12/16 00:55:49;;;;;;;8.38;4.70;;;;;;;8.99;100.00;92867.63;5089279;28;20105;-73
2022/12/16 00:58:16;;;;;;;8.98;4.82;;;;;;;9.04;100.00;92868.59;5089683;28;20115;-73
2022/12/16 01:00:42;;;;;;;5.90;4.25;;;;;;;9.06;100.00;92869.16;5089708;28;20055;-72
2022/12/16 01:03:09;;;;;;;6.30;4.55;;;;;;;9.03;100.00;92866.25;5089298;28;20055;-72
2022/12/16 01:05:38;;;;;;;7.13;4.32;;;;;;;9.04;100.00;92875.50;5089534;28;20040;-72
2022/12/16 01:08:05;;;;;;;6.40;4.88;;;;;;;9.07;100.00;92878.41;5089676;28;20105;-72
2022/12/16 01:10:32;;;;;;;6.38;3.90;;;;;;;9.09;100.00;92889.22;5089360;28;20083;-72
2022/12/16 01:12:58;;;;;;;6.85;5.32;;;;;;;8.99;100.00;92868.44;5089201;28;20088;-73
2022/12/16 01:15:25;;;;;;;8.43;4.72;;;;;;;9.02;100.00;92875.69;5089512;28;20044;-73
2022/12/16 01:17:52;;;;;;;5.93;4.68;;;;;;;8.93;100.00;92862.34;5089489;28;20058;-72
2022/12/16 01:20:19;;;;;;;7.60;4.63;;;;;;;8.92;100.00;92862.56;5089141;28;20496;-72
2022/12/16 01:22:47;;;;;;;9.82;5.28;;;;;;;8.88;100.00;92869.88;5089253;28;20105;-72
2022/12/16 01:25:14;;;;;;;6.10;5.03;;;;;;;8.83;100.00;92851.78;5090158;28;20048;-72
2022/12/16 01:27:41;;;;;;;7.35;5.20;;;;;;;8.88;100.00;92851.19;5093284;28;20055;-73
2022/12/16 01:30:10;;;;;;;8.68;4.82;;;;;;;8.80;100.00;92834.28;5093387;28;20060;-72
2022/12/16 01:32:36;;;;;;;6.78;5.05;;;;;;;8.89;100.00;92855.31;5093270;28;20040;-73
2022/12/16 01:35:04;;;;;;;7.22;4.88;;;;;;;8.89;100.00;92848.38;5093167;28;20488;-72
2022/12/16 01:37:30;;;;;;;7.32;5.10;;;;;;;8.92;100.00;92842.88;5092658;28;20083;-72
2022/12/16 01:39:59;;;;;;;6.43;4.82;;;;;;;8.90;100.00;92831.25;5092872;28;20565;-72
2022/12/16 01:42:27;;;;;;;7.75;5.32;;;;;;;8.98;100.00;92843.78;5092670;28;20052;-72
2022/12/16 01:44:54;;;;;;;7.35;5.47;;;;;;;9.04;100.00;92850.66;5092930;28;20051;-72
2022/12/16 01:47:26;;;;;;;8.70;4.45;;;;;;;9.05;100.00;92851.44;5093032;28;20051;-72
2022/12/16 01:49:59;;;;;;;7.72;4.88;;;;;;;9.09;100.00;92861.06;5092434;28;20113;-72
2022/12/16 01:52:29;;;;;;;7.55;4.55;;;;;;;9.12;100.00;92851.41;5102484;28;20506;-72
2022/12/16 01:55:01;;;;;;;8.02;5.35;;;;;;;9.12;100.00;92849.59;5096432;28;20040;-72
2022/12/16 01:57:33;;;;;;;8.45;5.18;;;;;;;9.13;100.00;92845.28;5092907;28;20052;-72
2022/12/16 02:00:02;;;;;;;9.25;5.20;;;;;;;9.10;100.00;92841.34;5094442;28;20416;-72
2022/12/16 02:02:28;;;;;;;9.23;5.45;;;;;;;8.98;100.00;92820.72;5104535;28;20577;-72
2022/12/16 02:07:39;;;;;;;12.70;6.10;;;;;;;9.08;100.00;92833.88;5091945;28;20055;-72
2022/12/16 02:10:10;;;;;;;8.73;5.25;;;;;;;8.88;100.00;92800.72;5092589;28;20102;-73
2022/12/16 02:12:44;;;;;;;8.77;6.15;;;;;;;9.02;100.00;92816.00;5092566;28;20461;-72
2022/12/16 02:15:23;;;;;;;10.07;5.65;;;;;;;9.09;100.00;92832.09;5093330;28;20048;-73
2022/12/16 02:17:58;;;;;;;11.48;6.00;;;;;;;9.01;100.00;92827.22;5103344;28;20549;-72
2022/12/16 02:21:14;;;;;;;8.13;5.38;;;;;;;9.03;100.00;92827.81;5092063;28;20089;-73
2022/12/16 02:24:14;;;;;;;9.80;5.55;;;;;;;8.81;100.00;92798.19;5086717;28;20087;-73
2022/12/16 02:27:07;;;;;;;7.18;5.07;;;;;;;9.02;100.00;92816.78;5092025;28;20106;-73
2022/12/16 02:30:00;;;;;;;6.40;4.63;;;;;;;9.02;100.00;92824.44;5092239;28;20076;-72
2022/12/16 02:32:36;;;;;;;7.20;4.43;;;;;;;9.06;100.00;92829.94;5089214;28;20458;-73
2022/12/16 02:35:10;;;;;;;8.02;4.85;;;;;;;9.04;100.00;92837.06;5092119;28;20052;-72
2022/12/16 02:37:42;;;;;;;8.98;4.40;;;;;;;8.95;100.00;92818.59;5091739;28;20471;-73
2022/12/16 02:40:22;;;;;;;6.43;4.38;;;;;;;9.15;100.00;92856.09;5091791;28;20101;-73
2022/12/16 02:42:53;;;;;;;5.15;3.97;;;;;;;9.17;100.00;92859.25;5091756;28;20525;-72
2022/12/16 02:45:24;;;;;;;10.98;5.00;;;;;;;9.11;100.00;92847.28;5091566;28;20071;-73
2022/12/16 02:47:53;;;;;;;7.57;4.47;;;;;;;9.15;100.00;92856.09;5091331;28;20450;-72
2022/12/16 02:50:22;;;;;;;8.00;4.53;;;;;;;9.13;100.00;92858.09;5077862;28;20139;-72
2022/12/16 02:52:50;;;;;;;7.05;4.78;;;;;;;9.12;100.00;92872.66;5091398;28;20097;-72
2022/12/16 02:55:17;;;;;;;7.93;5.05;;;;;;;9.11;100.00;92881.34;5091639;28;20076;-72
2022/12/16 02:58:03;;;;;;;8.52;5.20;;;;;;;9.11;100.00;92873.66;5091682;28;20097;-72
2022/12/16 03:00:40;;;;;;;10.85;6.15;;;;;;;9.08;100.00;92874.84;5091252;28;20055;-72
2022/12/16 03:03:14;;;;;;;11.50;6.32;;;;;;;9.01;100.00;92868.22;5091667;28;20044;-72
2022/12/16 03:05:47;;;;;;;9.43;6.22;;;;;;;8.99;100.00;92873.56;5091509;28;20040;-72
2022/12/16 03:08:18;;;;;;;11.20;6.97;;;;;;;8.97;100.00;92859.41;5091700;28;20404;-72
2022/12/16 03:10:50;;;;;;;8.60;6.65;;;;;;;8.94;100.00;92840.09;5091453;28;20072;-72
2022/12/16 03:13:19;;;;;;;9.55;5.88;;;;;;;8.92;100.00;92837.75;5091073;28;20055;-72
2022/12/16 03:15:48;;;;;;;7.85;5.45;;;;;;;8.85;100.00;92818.28;5091194;28;20044;-72
2022/12/16 03:18:18;;;;;;;9.52;5.40;;;;;;;8.81;100.00;92816.13;5091101;28;20079;-72
2022/12/16 03:20:50;;;;;;;8.27;4.70;;;;;;;8.85;100.00;92838.78;5091137;28;20043;-72
2022/12/16 03:23:21;;;;;;;7.40;5.35;;;;;;;8.87;100.00;92835.00;5090874;28;20047;-72
2022/12/16 03:25:54;;;;;;;6.93;5.22;;;;;;;8.86;100.00;92827.53;5090591;28;20044;-73
2022/12/16 03:28:34;;;;;;;7.32;5.72;;;;;;;8.81;100.00;92816.13;5090771;28;20074;-73
2022/12/16 03:31:08;;;;;;;8.40;5.43;;;;;;;8.75;100.00;92791.34;5090670;28;20055;-72
2022/12/16 03:33:44;;;;;;;8.20;5.63;;;;;;;8.87;100.00;92811.97;5090971;28;20121;-73
2022/12/16 03:36:16;;;;;;;7.55;5.10;;;;;;;8.77;100.00;92799.63;5090469;28;20052;-73
2022/12/16 03:38:45;;;;;;;8.02;6.25;;;;;;;8.91;100.00;92827.69;5090698;28;20582;-73
2022/12/16 03:41:14;;;;;;;7.50;4.95;;;;;;;8.87;100.00;92824.78;5090272;28;20052;-72
2022/12/16 03:43:41;;;;;;;9.35;5.55;;;;;;;9.00;100.00;92844.38;5090854;28;20121;-72
2022/12/16 03:46:09;;;;;;;8.85;5.13;;;;;;;9.02;100.00;92851.88;5090054;28;20087;-72
2022/12/16 03:48:45;;;;;;;7.68;5.28;;;;;;;9.07;100.00;92862.25;5089860;28;20052;-72
2022/12/16 03:51:12;;;;;;;10.50;5.97;;;;;;;9.09;100.00;92863.59;5090580;28;20076;-72
2022/12/16 03:53:39;;;;;;;9.93;6.70;;;;;;;9.13;100.00;92848.63;5090525;28;20047;-72
2022/12/16 03:56:06;;;;;;;8.55;5.97;;;;;;;9.17;100.00;92854.13;5090319;28;20056;-73
2022/12/16 03:58:34;;;;;;;9.82;6.20;;;;;;;9.20;100.00;92848.56;5090648;28;20040;-73
2022/12/16 04:01:01;;;;;;;10.32;5.88;;;;;;;9.13;100.00;92858.88;5090475;28;20058;-73
2022/12/16 04:03:28;;;;;;;8.23;5.90;;;;;;;9.18;100.00;92865.94;5089869;28;20048;-73
2022/12/16 04:05:56;;;;;;;10.15;7.05;;;;;;;9.18;100.00;92858.25;5090311;28;20427;-72
2022/12/16 04:08:22;;;;;;;9.15;7.00;;;;;;;9.20;100.00;92859.59;5104346;28;20047;-72
2022/12/16 04:24:34;;;;;;;8.63;5.53;;;;;;;9.31;100.00;92880.41;5089747;28;20077;-72
2022/12/16 04:34:24;;;;;;;7.30;4.47;;;;;;;9.19;100.00;92877.75;5089648;28;20560;-72
